Home > Products > Valid Products > TAF

000
FTUS43 KMPX 242119 AAB
TAFRWF
TAF AMD
KRWF 242119Z 2421/2518 08008KT 3SM -RA BR OVC007
     FM250600 03003KT 4SM BR VCSH OVC005
     FM251500 26006KT P6SM SCT008 OVC015=



000
FTUS43 KMPX 242050 AAC
TAFMSP
TAF AMD
KMSP 242050Z 2421/2524 08009KT 5SM -RA BR OVC015
     FM250400 05003KT 4SM BR VCSH OVC008
     FM251600 29004KT P6SM OVC012
     FM252000 25009KT P6SM OVC022=



000
FTUS43 KMPX 242004 AAB
TAFMSP
TAF AMD
KMSP 242004Z 2420/2524 08009KT 5SM -RA BR OVC015
     FM250400 05003KT 4SM BR VCSH OVC008
     FM251600 29004KT P6SM OVC012
     FM252000 25009KT P6SM OVC022=



000
FTUS43 KMPX 241941 AAA
TAFRWF
TAF AMD
KRWF 241941Z 2420/2518 08008KT 3SM -RA BR OVC008
     FM250600 03003KT 4SM BR VCSH OVC005
     FM251500 26006KT P6SM SCT008 OVC015=



000
FTUS43 KMPX 241908 AAA
TAFEAU
TAF AMD
KEAU 241908Z 2419/2518 15008KT P6SM -SHRA OVC040
     FM242130 10006KT 4SM -RA BR OVC015
     FM250400 08004KT 3SM -RA BR OVC008
     FM250900 VRB03KT 2SM -DZ BR OVC005
     FM251400 24005KT 3SM -SHRA BR OVC007=



000
FTUS43 KMPX 241908 AAA
TAFEAU
TAF AMD
KEAU 241908Z 2419/2518 15008KT P6SM -SHRA OVC040
     FM242130 10006KT 4SM -RA BR OVC015
     FM250400 08004KT 3SM -RA BR OVC008
     FM250900 VRB03KT 2SM -DZ BR OVC005
     FM251400 24005KT 3SM -SHRA BR OVC007=



000
FTUS43 KMPX 241903 AAA
TAFMSP
TAF AMD
KMSP 241903Z 2419/2524 09010KT 5SM -RA OVC020
     FM250300 07007KT 5SM -RA BR OVC015
     FM250800 03003KT 4SM BR VCSH OVC008
     FM251600 29004KT P6SM OVC012
     FM252000 25009KT P6SM OVC022=



000
FTUS43 KMPX 241740
TAFEAU
TAF
KEAU 241740Z 2418/2518 15008KT P6SM -SHRA OVC050
     FM242300 10006KT 4SM -RA BR OVC015
     FM250400 08004KT 3SM -RA BR OVC008
     FM250900 VRB03KT 2SM -DZ BR OVC005
     FM251400 24005KT 3SM -SHRA BR OVC007=



000
FTUS43 KMPX 241740
TAFAXN
TAF
KAXN 241740Z 2418/2518 10010KT P6SM -SHRA OVC050
     FM250000 08006KT 5SM -RA BR OVC020
     FM250400 05005KT 3SM -RA BR OVC012
     FM250900 01005KT 3SM -RA BR OVC006=



000
FTUS43 KMPX 241740
TAFMSP
TAF
KMSP 241740Z 2418/2524 11010KT 6SM -SHRA BR OVC050
     FM242200 09008KT 6SM -RA OVC020
     FM250300 07007KT 5SM BR VCSH OVC015
     FM250800 03003KT 4SM BR VCSH OVC008
     FM251600 29004KT P6SM OVC012
     FM252000 25009KT P6SM OVC022=



000
FTUS43 KMPX 241740
TAFRWF
TAF
KRWF 241740Z 2418/2518 08008KT 4SM -RA BR SCT009 OVC015
     FM242200 08008KT 3SM -RA BR OVC008
     FM250600 03003KT 4SM BR VCSH OVC005
     FM251500 26006KT P6SM SCT008 OVC015=



000
FTUS43 KMPX 241740
TAFSTC
TAF
KSTC 241740Z 2418/2518 08010KT P6SM -SHRA OVC050
     FM250000 08005KT 5SM -RA BR OVC020
     FM250400 05005KT 4SM -RA BR OVC011
     FM250900 02003KT 3SM -RA BR OVC007=



000
FTUS43 KMPX 241740
TAFRWF
TAF
KRWF 241740Z 2418/2518 08008KT 4SM -RA BR SCT009 OVC015
     FM242200 08008KT 3SM -RA BR OVC008
     FM250600 03003KT 4SM BR VCSH OVC005
     FM251500 26006KT P6SM SCT008 OVC015=



000
FTUS43 KMPX 241740
TAFEAU
TAF
KEAU 241740Z 2418/2518 15008KT P6SM -SHRA OVC050
     FM242300 10006KT 4SM -RA BR OVC015
     FM250400 08004KT 3SM -RA BR OVC008
     FM250900 VRB03KT 2SM -DZ BR OVC005
     FM251400 24005KT 3SM -SHRA BR OVC007=



000
FTUS43 KMPX 241740
TAFMSP
TAF
KMSP 241740Z 2418/2524 11010KT 6SM -SHRA BR OVC050
     FM242200 09008KT 6SM -RA OVC020
     FM250300 07007KT 5SM BR VCSH OVC015
     FM250800 03003KT 4SM BR VCSH OVC008
     FM251600 29004KT P6SM OVC012
     FM252000 25009KT P6SM OVC022=



000
FTUS43 KMPX 241740
TAFSTC
TAF
KSTC 241740Z 2418/2518 08010KT P6SM -SHRA OVC050
     FM250000 08005KT 5SM -RA BR OVC020
     FM250400 05005KT 4SM -RA BR OVC011
     FM250900 02003KT 3SM -RA BR OVC007=



000
FTUS43 KMPX 241740
TAFAXN
TAF
KAXN 241740Z 2418/2518 10010KT P6SM -SHRA OVC050
     FM250000 08006KT 5SM -RA BR OVC020
     FM250400 05005KT 3SM -RA BR OVC012
     FM250900 01005KT 3SM -RA BR OVC006=



000
FTUS43 KMPX 241650 AAB
TAFRWF
TAF AMD
KRWF 241650Z 2417/2512 08007KT 4SM -RA BR OVC035
     FM241800 05006KT 4SM -RA BR OVC015
     FM250300 01004KT 6SM BR OVC008=



000
FTUS43 KMPX 241544 AAA
TAFEAU
TAF AMD
KEAU 241544Z 2416/2512 13007KT P6SM OVC070
     FM241730 12008KT P6SM -SHRA OVC050
     FM242200 10006KT 4SM -RA BR OVC015
     FM250400 08004KT 3SM -RA BR OVC008
     FM251000 VRB03KT 2SM -DZ BR OVC005=



000
FTUS43 KMPX 241544 AAA
TAFEAU
TAF AMD
KEAU 241544Z 2416/2512 13007KT P6SM OVC070
     FM241730 12008KT P6SM -SHRA OVC050
     FM242200 10006KT 4SM -RA BR OVC015
     FM250400 08004KT 3SM -RA BR OVC008
     FM251000 VRB03KT 2SM -DZ BR OVC005=



000
FTUS43 KMPX 241540 AAA
TAFRWF
TAF AMD
KRWF 241540Z 2416/2512 08007KT P6SM -SHRA OVC035
     FM242200 05006KT 6SM -SHRA OVC015
     FM250300 01004KT 6SM BR OVC008=



000
FTUS43 KMPX 241537 AAA
TAFSTC
TAF AMD
KSTC 241537Z 2416/2512 08010KT P6SM -SHRA OVC050
     FM250100 06005KT 6SM -SHRA BR OVC020
     FM250600 02005KT 4SM -RA BR OVC010=



000
FTUS43 KMPX 241536 AAA
TAFAXN
TAF AMD
KAXN 241536Z 2416/2512 09010KT P6SM -SHRA OVC050
     FM250100 05006KT 6SM -SHRA BR OVC020
     FM250400 02005KT 4SM -RA BR OVC006=



000
FTUS43 KMPX 241500 AAA
TAFMSP
TAF AMD
KMSP 241500Z 2415/2518 11010KT 6SM -SHRA BR OVC060
     FM242200 09008KT 6SM -RA OVC020
     FM250300 07007KT 5SM BR VCSH OVC015=



000
FTUS43 KMPX 241500 AAA
TAFMSP
TAF AMD
KMSP 241500Z 2415/2518 11010KT 6SM -SHRA BR OVC060
     FM242200 09008KT 6SM -RA OVC020
     FM250300 07007KT 5SM BR VCSH OVC015=



000
FTUS43 KMPX 241136
TAFMSP
TAF
KMSP 241136Z 2412/2518 08005KT P6SM OVC070
     FM241330 11008KT P6SM VCSH OVC050
     FM241500 12011KT 6SM -RA BR OVC040
      TEMPO 2416/2420 3SM -RA BR BKN030
     FM242200 10008KT P6SM OVC020
     FM250300 12007KT 5SM -RA BR OVC015=



000
FTUS43 KMPX 241136
TAFMSP
TAF
KMSP 241136Z 2412/2518 08005KT P6SM OVC070
     FM241330 11008KT P6SM VCSH OVC050
     FM241500 12011KT 6SM -RA BR OVC040
      TEMPO 2416/2420 3SM -RA BR BKN030
     FM242200 10008KT P6SM OVC020
     FM250300 12007KT 5SM -RA BR OVC015=



000
FTUS43 KMPX 241136
TAFSTC
TAF
KSTC 241136Z 2412/2512 09005KT P6SM VCSH OVC060
     FM241400 10010KT 6SM -RA BR OVC040
      TEMPO 2417/2421 3SM -RA BR OVC025
     FM250000 11008KT P6SM OVC020
     FM250300 09006KT 4SM -RA BR OVC012=



000
FTUS43 KMPX 241136
TAFRWF
TAF
KRWF 241136Z 2412/2512 10005KT P6SM -RA SCT040 OVC080
     FM241400 12011KT 5SM -RA BR OVC035
      TEMPO 2415/2419 3SM -RA BR OVC020
     FM242200 11010KT P6SM OVC015
     FM250300 09007KT 4SM -RA BR OVC010=



000
FTUS43 KMPX 241136
TAFAXN
TAF
KAXN 241136Z 2412/2512 10010KT P6SM VCSH OVC050
     FM241500 09010KT 6SM -RA BR OVC035
      TEMPO 2418/2422 3SM -RA BR BKN025
     FM250000 09008KT P6SM OVC025
     FM250300 08010KT 4SM -RA BR OVC015=



000
FTUS43 KMPX 241136
TAFEAU
TAF
KEAU 241136Z 2412/2512 11005KT P6SM SCT070 OVC120
     FM241330 12006KT P6SM VCSH OVC050
     FM241500 13011KT 6SM -RA OVC040
      TEMPO 2417/2421 3SM -RA BR OVC025
     FM242200 11009KT 6SM -DZ BR OVC015
     FM250300 13006KT 4SM -RA BR OVC012=



000
FTUS43 KMPX 241136
TAFSTC
TAF
KSTC 241136Z 2412/2512 09005KT P6SM VCSH OVC060
     FM241400 10010KT 6SM -RA BR OVC040
      TEMPO 2417/2421 3SM -RA BR OVC025
     FM250000 11008KT P6SM OVC020
     FM250300 09006KT 4SM -RA BR OVC012=



000
FTUS43 KMPX 241136
TAFAXN
TAF
KAXN 241136Z 2412/2512 10010KT P6SM VCSH OVC050
     FM241500 09010KT 6SM -RA BR OVC035
      TEMPO 2418/2422 3SM -RA BR BKN025
     FM250000 09008KT P6SM OVC025
     FM250300 08010KT 4SM -RA BR OVC015=



000
FTUS43 KMPX 241136
TAFEAU
TAF
KEAU 241136Z 2412/2512 11005KT P6SM SCT070 OVC120
     FM241330 12006KT P6SM VCSH OVC050
     FM241500 13011KT 6SM -RA OVC040
      TEMPO 2417/2421 3SM -RA BR OVC025
     FM242200 11009KT 6SM -DZ BR OVC015
     FM250300 13006KT 4SM -RA BR OVC012=



000
FTUS43 KMPX 241136
TAFRWF
TAF
KRWF 241136Z 2412/2512 10005KT P6SM -RA SCT040 OVC080
     FM241400 12011KT 5SM -RA BR OVC035
      TEMPO 2415/2419 3SM -RA BR OVC020
     FM242200 11010KT P6SM OVC015
     FM250300 09007KT 4SM -RA BR OVC010=



000
FTUS43 KMPX 240859 AAA
TAFMSP
TAF AMD
KMSP 240859Z 2409/2512 08005KT P6SM OVC060
     FM241200 11008KT P6SM VCSH OVC040
     FM241500 11012G18KT 5SM -RA OVC030
     FM242300 09012KT 6SM -DZ BR OVC020=



000
FTUS43 KMPX 240524
TAFRWF
TAF
KRWF 240524Z 2406/2506 10007KT P6SM OVC060
     FM240900 13005KT P6SM VCSH SCT040 OVC050
     FM241200 10008KT 6SM -RA BR OVC035
     FM241700 12010KT 3SM -RA BR OVC020
     FM250000 08007KT P6SM VCSH OVC015=



000
FTUS43 KMPX 240524
TAFSTC
TAF
KSTC 240524Z 2406/2506 09005KT P6SM BKN060 OVC100
     FM241400 10004KT 6SM -RA BR OVC040
     FM241800 11008KT 3SM -RA BR OVC025
     FM250000 09006KT P6SM VCSH OVC020=



000
FTUS43 KMPX 240524
TAFMSP
TAF
KMSP 240524Z 2406/2512 09005KT P6SM SCT050 OVC080
     FM241300 11008KT P6SM VCSH OVC040
     FM241700 11012G18KT 5SM -RA OVC030
     FM242300 09012KT 6SM -DZ BR OVC020=



000
FTUS43 KMPX 240524
TAFAXN
TAF
KAXN 240524Z 2406/2506 08007KT P6SM BKN050 OVC100
     FM241500 10010KT P6SM VCSH OVC050
     FM241900 10012KT P6SM -RA OVC025
     FM250300 08010KT 4SM -RA BR OVC020=



000
FTUS43 KMPX 240524
TAFEAU
TAF
KEAU 240524Z 2406/2506 07004KT P6SM SCT070 OVC120
     FM241400 10006KT P6SM VCSH OVC050
     FM241700 15009KT 4SM -RA OVC025
     FM250000 08009KT 6SM -DZ BR OVC009=



000
FTUS43 KMPX 240524
TAFAXN
TAF
KAXN 240524Z 2406/2506 08007KT P6SM BKN050 OVC100
     FM241500 10010KT P6SM VCSH OVC050
     FM241900 10012KT P6SM -RA OVC025
     FM250300 08010KT 4SM -RA BR OVC020=



000
FTUS43 KMPX 240524
TAFMSP
TAF
KMSP 240524Z 2406/2512 09005KT P6SM SCT050 OVC080
     FM241300 11008KT P6SM VCSH OVC040
     FM241700 11012G18KT 5SM -RA OVC030
     FM242300 09012KT 6SM -DZ BR OVC020=



000
FTUS43 KMPX 240524
TAFEAU
TAF
KEAU 240524Z 2406/2506 07004KT P6SM SCT070 OVC120
     FM241400 10006KT P6SM VCSH OVC050
     FM241700 15009KT 4SM -RA OVC025
     FM250000 08009KT 6SM -DZ BR OVC009=



000
FTUS43 KMPX 240524
TAFSTC
TAF
KSTC 240524Z 2406/2506 09005KT P6SM BKN060 OVC100
     FM241400 10004KT 6SM -RA BR OVC040
     FM241800 11008KT 3SM -RA BR OVC025
     FM250000 09006KT P6SM VCSH OVC020=



000
FTUS43 KMPX 240255 AAA
TAFMSP
TAF AMD
KMSP 240255Z 2403/2506 08007KT P6SM OVC080
     FM241300 11008KT P6SM VCSH OVC035
     FM241700 11012G18KT 5SM -RA OVC030
     FM242300 09012KT P6SM -DZ OVC025=



000
FTUS43 KMPX 240025 AAA
TAFAXN
TAF AMD
KAXN 240025Z 2400/2424 15007KT P6SM BKN050 OVC100
     FM241500 10010KT P6SM VCSH OVC050
     FM241900 10012KT 4SM -RA BR OVC025=



000
FTUS43 KMPX 240025 AAA
TAFAXN
TAF AMD
KAXN 240025Z 2400/2424 15007KT P6SM BKN050 OVC100
     FM241500 10010KT P6SM VCSH OVC050
     FM241900 10012KT 4SM -RA BR OVC025=



000
FTUS43 KMPX 232320
TAFAXN
TAF
KAXN 232320Z 2400/2424 18014KT P6SM BKN070
     FM240200 15005KT P6SM BKN050 OVC100
     FM241500 10010KT P6SM VCSH OVC050
     FM241900 10012KT 4SM -RA BR OVC025=



000
FTUS43 KMPX 232320
TAFEAU
TAF
KEAU 232320Z 2400/2424 01004KT P6SM BKN060 OVC100
     FM241400 10006KT P6SM VCSH OVC050
     FM241700 15009KT 4SM -RA OVC025=



000
FTUS43 KMPX 232320
TAFMSP
TAF
KMSP 232320Z 2400/2506 08007KT P6SM OVC060
     FM241200 11008KT P6SM VCSH OVC035
     FM241700 11012G18KT 5SM -RA OVC030
     FM242300 09012KT P6SM -DZ OVC025=



000
FTUS43 KMPX 232320
TAFSTC
TAF
KSTC 232320Z 2400/2424 18006KT P6SM BKN060 OVC100
     FM241400 10004KT 6SM -RA BR OVC040
     FM241800 11008KT 3SM -RA BR OVC025=



000
FTUS43 KMPX 232320
TAFRWF
TAF
KRWF 232320Z 2400/2424 10007KT P6SM VCSH OVC060
     FM240900 13005KT P6SM VCSH SCT040 OVC050
     FM241200 10008KT 6SM -RA BR OVC035
     FM241700 12010KT 3SM -RA BR OVC020=



000
FTUS43 KMPX 232141 AAA
TAFAXN
TAF AMD
KAXN 232141Z 2322/2418 18014KT P6SM BKN070
     FM240200 15005KT P6SM BKN050 OVC100
     FM241500 10010KT P6SM OVC050=



000
FTUS43 KMPX 232141 AAA
TAFAXN
TAF AMD
KAXN 232141Z 2322/2418 18014KT P6SM BKN070
     FM240200 15005KT P6SM BKN050 OVC100
     FM241500 10010KT P6SM OVC050=



000
FTUS43 KMPX 232128 AAC
TAFMSP
TAF AMD
KMSP 232128Z 2321/2424 36008KT P6SM OVC080
     FM232300 09007KT P6SM OVC060
     FM241200 11008KT P6SM -RA OVC035
     FM241900 11012G18KT 5SM RA OVC030=



000
FTUS43 KMPX 232100 AAB
TAFMSP
TAF AMD
KMSP 232100Z 2321/2424 VRB03KT P6SM OVC080
     FM240300 10007KT P6SM OVC060
     FM241200 11008KT P6SM -RA OVC035
     FM241900 11012G18KT 5SM RA OVC030=



000
FTUS43 KMPX 231928 AAA
TAFMSP
TAF AMD
KMSP 231928Z 2319/2424 07004KT P6SM OVC090
     FM232100 10007KT P6SM SCT050 OVC070
     FM241200 13008KT 6SM -RA BR OVC035=



000
FTUS43 KMPX 231928 AAA
TAFMSP
TAF AMD
KMSP 231928Z 2319/2424 07004KT P6SM OVC090
     FM232100 10007KT P6SM SCT050 OVC070
     FM241200 13008KT 6SM -RA BR OVC035=



000
FTUS43 KMPX 231743
TAFSTC
TAF
KSTC 231743Z 2318/2418 20003KT P6SM -SHRA SCT060 OVC120
     FM232200 18006KT P6SM BKN060 OVC100
     FM241400 10004KT 6SM -RA BR OVC040=



000
FTUS43 KMPX 231743
TAFEAU
TAF
KEAU 231743Z 2318/2418 VRB04KT P6SM SCT060 BKN120
     FM240000 01004KT P6SM BKN060 OVC100
     FM241400 10006KT P6SM VCSH BKN050=



000
FTUS43 KMPX 231743
TAFRWF
TAF
KRWF 231743Z 2318/2418 10007KT P6SM VCSH OVC060
     FM240900 13005KT P6SM VCSH SCT040 OVC050
     FM241200 10008KT 6SM -RA BR OVC035=



000
FTUS43 KMPX 231743
TAFAXN
TAF
KAXN 231743Z 2318/2418 19008KT P6SM SCT060 BKN100
     FM240200 15005KT P6SM BKN050 OVC100
     FM241500 10010KT P6SM OVC050=



000
FTUS43 KMPX 231743
TAFMSP
TAF
KMSP 231743Z 2318/2424 35005KT P6SM VCSH SCT060 OVC090
      TEMPO 2318/2320 -SHRA
     FM232000 02006KT P6SM OVC080
     FM232100 10007KT P6SM SCT050 OVC070
     FM241200 13008KT 6SM -RA BR OVC035=



000
FTUS43 KMPX 231743
TAFRWF
TAF
KRWF 231743Z 2318/2418 10007KT P6SM VCSH OVC060
     FM240900 13005KT P6SM VCSH SCT040 OVC050
     FM241200 10008KT 6SM -RA BR OVC035=



000
FTUS43 KMPX 231743
TAFMSP
TAF
KMSP 231743Z 2318/2424 35005KT P6SM VCSH SCT060 OVC090
      TEMPO 2318/2320 -SHRA
     FM232000 02006KT P6SM OVC080
     FM232100 10007KT P6SM SCT050 OVC070
     FM241200 13008KT 6SM -RA BR OVC035=



000
FTUS43 KMPX 231743
TAFEAU
TAF
KEAU 231743Z 2318/2418 VRB04KT P6SM SCT060 BKN120
     FM240000 01004KT P6SM BKN060 OVC100
     FM241400 10006KT P6SM VCSH BKN050=



000
FTUS43 KMPX 231743
TAFSTC
TAF
KSTC 231743Z 2318/2418 20003KT P6SM -SHRA SCT060 OVC120
     FM232200 18006KT P6SM BKN060 OVC100
     FM241400 10004KT 6SM -RA BR OVC040=



000
FTUS43 KMPX 231743
TAFAXN
TAF
KAXN 231743Z 2318/2418 19008KT P6SM SCT060 BKN100
     FM240200 15005KT P6SM BKN050 OVC100
     FM241500 10010KT P6SM OVC050=



000
FTUS43 KMPX 231616 AAB
TAFMSP
TAF AMD
KMSP 231616Z 2316/2418 34007KT P6SM OVC100
     FM231730 24004KT P6SM VCSH OVC090
     FM231800 20007KT P6SM -SHRA BKN060 OVC090
     FM232200 17006KT P6SM OVC060
     FM240900 13008KT 6SM -RA BR OVC035=



000
FTUS43 KMPX 231503 AAA
TAFMSP
TAF AMD
KMSP 231503Z 2315/2418 21004KT P6SM VCSH OVC090
     FM231800 20007KT P6SM -SHRA BKN060 OVC090
     FM232200 17006KT P6SM OVC060
     FM240900 13008KT 6SM -RA BR OVC035=



000
FTUS43 KMPX 231503 AAA
TAFMSP
TAF AMD
KMSP 231503Z 2315/2418 21004KT P6SM VCSH OVC090
     FM231800 20007KT P6SM -SHRA BKN060 OVC090
     FM232200 17006KT P6SM OVC060
     FM240900 13008KT 6SM -RA BR OVC035=



000
FTUS43 KMPX 231136
TAFSTC
TAF
KSTC 231136Z 2312/2412 VRB03KT P6SM OVC200
     FM231600 20006KT P6SM -SHRA SCT060 OVC120
     FM232000 16005KT P6SM BKN060 OVC100
     FM240200 11005KT P6SM OVC060=



000
FTUS43 KMPX 231136
TAFMSP
TAF
KMSP 231136Z 2312/2418 15003KT P6SM BKN200
     FM231600 19007KT P6SM -SHRA SCT060 OVC120
     FM232000 16006KT P6SM OVC060
     FM240900 13008KT 6SM -RA BR OVC035=



000
FTUS43 KMPX 231136
TAFEAU
TAF
KEAU 231136Z 2312/2412 VRB02KT P6SM BKN250
      TEMPO 2312/2314 3SM BR
     FM231400 18005KT P6SM BKN150
     FM231800 22008KT P6SM SCT060 BKN120
     FM240000 16004KT P6SM BKN060 OVC100
     FM240600 13004KT P6SM BKN050=



000
FTUS43 KMPX 231136
TAFMSP
TAF
KMSP 231136Z 2312/2418 15003KT P6SM BKN200
     FM231600 19007KT P6SM -SHRA SCT060 OVC120
     FM232000 16006KT P6SM OVC060
     FM240900 13008KT 6SM -RA BR OVC035=



000
FTUS43 KMPX 231136
TAFRWF
TAF
KRWF 231136Z 2312/2412 VRB04KT P6SM -SHRA SCT060 OVC120
     FM231600 16009KT P6SM OVC060
     FM240200 13005KT P6SM VCSH SCT025 OVC045
     FM240900 12008KT 5SM -RA BR BKN025=



000
FTUS43 KMPX 231136
TAFEAU
TAF
KEAU 231136Z 2312/2412 VRB02KT P6SM BKN250
      TEMPO 2312/2314 3SM BR
     FM231400 18005KT P6SM BKN150
     FM231800 22008KT P6SM SCT060 BKN120
     FM240000 16004KT P6SM BKN060 OVC100
     FM240600 13004KT P6SM BKN050=



000
FTUS43 KMPX 231136
TAFSTC
TAF
KSTC 231136Z 2312/2412 VRB03KT P6SM OVC200
     FM231600 20006KT P6SM -SHRA SCT060 OVC120
     FM232000 16005KT P6SM BKN060 OVC100
     FM240200 11005KT P6SM OVC060=



000
FTUS43 KMPX 231136
TAFAXN
TAF
KAXN 231136Z 2312/2412 VRB03KT P6SM BKN200
     FM231600 20005KT P6SM -SHRA SCT060 BKN120
     FM232000 16009KT P6SM BKN060 OVC090
     FM240300 11005KT P6SM OVC050=



000
FTUS43 KMPX 231136
TAFRWF
TAF
KRWF 231136Z 2312/2412 VRB04KT P6SM -SHRA SCT060 OVC120
     FM231600 16009KT P6SM OVC060
     FM240200 13005KT P6SM VCSH SCT025 OVC045
     FM240900 12008KT 5SM -RA BR BKN025=



000
FTUS43 KMPX 231136
TAFAXN
TAF
KAXN 231136Z 2312/2412 VRB03KT P6SM BKN200
     FM231600 20005KT P6SM -SHRA SCT060 BKN120
     FM232000 16009KT P6SM BKN060 OVC090
     FM240300 11005KT P6SM OVC050=



000
FTUS43 KMPX 230900 AAA
TAFMSP
TAF AMD
KMSP 230900Z 2309/2412 VRB02KT P6SM BKN200
     FM231200 18005KT P6SM BKN130
     FM231700 19009KT P6SM SCT060 OVC090
     FM240100 14006KT P6SM OVC060
     FM240900 11005KT P6SM -RA OVC035=



000
FTUS43 KMPX 230520
TAFMSP
TAF
KMSP 230520Z 2306/2412 12004KT P6SM BKN250
     FM231200 18005KT P6SM BKN130
     FM231700 19009KT P6SM SCT060 OVC090
     FM240100 14006KT P6SM OVC060
     FM240900 11005KT P6SM -RA OVC035=



000
FTUS43 KMPX 230520
TAFRWF
TAF
KRWF 230520Z 2306/2406 16004KT P6SM SCT120 OVC250
     FM231100 22005KT P6SM SCT060 OVC120
     FM231700 17011KT P6SM OVC060
     FM240100 11007KT P6SM VCSH SCT025 OVC045=



000
FTUS43 KMPX 230520
TAFEAU
TAF
KEAU 230520Z 2306/2406 VRB02KT P6SM BKN250
     FM231500 18005KT P6SM BKN150
     FM232000 22010KT P6SM SCT060 BKN120
     FM240100 14003KT P6SM BKN060 OVC100=



000
FTUS43 KMPX 230520
TAFAXN
TAF
KAXN 230520Z 2306/2406 16004KT P6SM BKN250
     FM231400 18006KT P6SM SCT060 BKN120
     FM231900 18009KT P6SM BKN060 OVC090
     FM240100 11005KT P6SM OVC050=



000
FTUS43 KMPX 230520
TAFSTC
TAF
KSTC 230520Z 2306/2406 VRB02KT P6SM BKN250
     FM231200 18004KT P6SM OVC150
     FM231900 19009KT P6SM SCT060 OVC120
     FM240100 08005KT P6SM BKN060 OVC100=



000
FTUS43 KMPX 230520
TAFEAU
TAF
KEAU 230520Z 2306/2406 VRB02KT P6SM BKN250
     FM231500 18005KT P6SM BKN150
     FM232000 22010KT P6SM SCT060 BKN120
     FM240100 14003KT P6SM BKN060 OVC100=



000
FTUS43 KMPX 230520
TAFMSP
TAF
KMSP 230520Z 2306/2412 12004KT P6SM BKN250
     FM231200 18005KT P6SM BKN130
     FM231700 19009KT P6SM SCT060 OVC090
     FM240100 14006KT P6SM OVC060
     FM240900 11005KT P6SM -RA OVC035=



000
FTUS43 KMPX 230246 AAA
TAFMSP
TAF AMD
KMSP 230246Z 2303/2406 11003KT P6SM BKN250
     FM231200 18005KT P6SM SCT060 BKN150
     FM231700 19010KT P6SM BKN060 OVC120
     FM240100 13006KT P6SM OVC050=



000
FTUS43 KMPX 222336
TAFEAU
TAF
KEAU 222336Z 2300/2324 VRB02KT P6SM BKN250
     FM231500 18005KT P6SM SCT060 BKN150
     FM232000 22010KT P6SM BKN060 OVC120=



000
FTUS43 KMPX 222336
TAFSTC
TAF
KSTC 222336Z 2300/2324 VRB02KT P6SM BKN250
     FM231200 18004KT P6SM OVC150
     FM231900 19009KT P6SM BKN050 OVC090=



000
FTUS43 KMPX 222336
TAFMSP
TAF
KMSP 222336Z 2300/2406 12004KT P6SM BKN250
     FM231200 18005KT P6SM SCT060 BKN150
     FM231700 19009KT P6SM BKN060 OVC120
     FM240100 13006KT P6SM OVC050=



000
FTUS43 KMPX 222336
TAFAXN
TAF
KAXN 222336Z 2300/2324 15004KT P6SM SCT250
     FM230900 19004KT P6SM BKN250
     FM231400 18006KT P6SM SCT060 BKN120
     FM231900 18009KT P6SM VCSH BKN050 OVC090=



000
FTUS43 KMPX 222336
TAFRWF
TAF
KRWF 222336Z 2300/2324 16004KT P6SM SCT120 OVC250
     FM231100 22005KT P6SM SCT060 OVC120
     FM231700 17011KT P6SM VCSH OVC050=



000
FTUS43 KMPX 222336
TAFEAU
TAF
KEAU 222336Z 2300/2324 VRB02KT P6SM BKN250
     FM231500 18005KT P6SM SCT060 BKN150
     FM232000 22010KT P6SM BKN060 OVC120=



000
FTUS43 KMPX 222336
TAFMSP
TAF
KMSP 222336Z 2300/2406 12004KT P6SM BKN250
     FM231200 18005KT P6SM SCT060 BKN150
     FM231700 19009KT P6SM BKN060 OVC120
     FM240100 13006KT P6SM OVC050=



000
FTUS43 KMPX 222336
TAFSTC
TAF
KSTC 222336Z 2300/2324 VRB02KT P6SM BKN250
     FM231200 18004KT P6SM OVC150
     FM231900 19009KT P6SM BKN050 OVC090=



000
FTUS43 KMPX 222336
TAFAXN
TAF
KAXN 222336Z 2300/2324 15004KT P6SM SCT250
     FM230900 19004KT P6SM BKN250
     FM231400 18006KT P6SM SCT060 BKN120
     FM231900 18009KT P6SM VCSH BKN050 OVC090=



000
FTUS43 KMPX 222336
TAFRWF
TAF
KRWF 222336Z 2300/2324 16004KT P6SM SCT120 OVC250
     FM231100 22005KT P6SM SCT060 OVC120
     FM231700 17011KT P6SM VCSH OVC050=



000
FTUS43 KMPX 222054 AAA
TAFMSP
TAF AMD
KMSP 222054Z 2221/2324 12005KT P6SM FEW250
     FM230900 20003KT P6SM SCT250
     FM231500 20007KT P6SM BKN080 OVC120
     FM232000 16007KT P6SM VCSH OVC070=



000
FTUS43 KMPX 221727
TAFSTC
TAF
KSTC 221727Z 2218/2318 17007KT P6SM SKC
     FM231200 20005KT P6SM BKN250
     FM231700 23007KT P6SM -RA OVC090=



000
FTUS43 KMPX 221727
TAFAXN
TAF
KAXN 221727Z 2218/2318 16006KT P6SM SKC
     FM230900 19004KT P6SM BKN250
     FM231600 20005KT P6SM -RA OVC090=



000
FTUS43 KMPX 221727
TAFSTC
TAF
KSTC 221727Z 2218/2318 17007KT P6SM SKC
     FM231200 20005KT P6SM BKN250
     FM231700 23007KT P6SM -RA OVC090=



000
FTUS43 KMPX 221727
TAFEAU
TAF
KEAU 221727Z 2218/2318 VRB03KT P6SM SKC
     FM231500 18005KT P6SM BKN250=



000
FTUS43 KMPX 221727
TAFMSP
TAF
KMSP 221727Z 2218/2324 13007KT P6SM SKC
     FM230900 20003KT P6SM SCT250
     FM231500 20007KT P6SM BKN080 OVC120
     FM232000 16007KT P6SM VCSH OVC070=



000
FTUS43 KMPX 221727
TAFRWF
TAF
KRWF 221727Z 2218/2318 17007KT P6SM SKC
     FM230900 20005KT P6SM SCT100 BKN250
     FM231300 18005KT P6SM -RA OVC050=



000
FTUS43 KMPX 221727
TAFMSP
TAF
KMSP 221727Z 2218/2324 13007KT P6SM SKC
     FM230900 20003KT P6SM SCT250
     FM231500 20007KT P6SM BKN080 OVC120
     FM232000 16007KT P6SM VCSH OVC070=



000
FTUS43 KMPX 221727
TAFEAU
TAF
KEAU 221727Z 2218/2318 VRB03KT P6SM SKC
     FM231500 18005KT P6SM BKN250=



000
FTUS43 KMPX 221727
TAFRWF
TAF
KRWF 221727Z 2218/2318 17007KT P6SM SKC
     FM230900 20005KT P6SM SCT100 BKN250
     FM231300 18005KT P6SM -RA OVC050=



000
FTUS43 KMPX 221727
TAFAXN
TAF
KAXN 221727Z 2218/2318 16006KT P6SM SKC
     FM230900 19004KT P6SM BKN250
     FM231600 20005KT P6SM -RA OVC090=



000
FTUS43 KMPX 221454 AAA
TAFMSP
TAF AMD
KMSP 221454Z 2215/2318 11004KT P6SM SKC
     FM221900 13007KT P6SM SKC
     FM230900 20003KT P6SM SCT250
     FM231500 20007KT P6SM BKN080 OVC120=



000
FTUS43 KMPX 221120
TAFSTC
TAF
KSTC 221120Z 2212/2312 VRB02KT P6SM SKC
     FM221400 13004KT P6SM SKC
     FM221800 17007KT P6SM SKC
     FM230900 19003KT P6SM FEW250=



000
FTUS43 KMPX 221120
TAFRWF
TAF
KRWF 221120Z 2212/2312 VRB03KT P6SM SKC
     FM221500 14004KT P6SM SKC
     FM221900 17007KT P6SM SKC
     FM230900 20005KT P6SM FEW100 BKN250=



000
FTUS43 KMPX 221120
TAFAXN
TAF
KAXN 221120Z 2212/2312 VRB04KT P6SM SKC
     FM221400 15005KT P6SM SKC
     FM221900 17007KT P6SM SKC
     FM230600 19004KT P6SM SCT250=



000
FTUS43 KMPX 221120
TAFEAU
TAF
KEAU 221120Z 2212/2312 05004KT P6SM SKC
     FM221800 VRB03KT P6SM SKC
     FM230600 15005KT P6SM SKC=



000
FTUS43 KMPX 221120
TAFEAU
TAF
KEAU 221120Z 2212/2312 05004KT P6SM SKC
     FM221800 VRB03KT P6SM SKC
     FM230600 15005KT P6SM SKC=



000
FTUS43 KMPX 221120
TAFMSP
TAF
KMSP 221120Z 2212/2318 VRB03KT P6SM SKC
     FM221500 11004KT P6SM SKC
     FM221900 14007KT P6SM SKC
     FM230900 20003KT P6SM SCT250
     FM231500 20007KT P6SM BKN080 OVC120=



000
FTUS43 KMPX 221120
TAFRWF
TAF
KRWF 221120Z 2212/2312 VRB03KT P6SM SKC
     FM221500 14004KT P6SM SKC
     FM221900 17007KT P6SM SKC
     FM230900 20005KT P6SM FEW100 BKN250=



000
FTUS43 KMPX 221120
TAFSTC
TAF
KSTC 221120Z 2212/2312 VRB02KT P6SM SKC
     FM221400 13004KT P6SM SKC
     FM221800 17007KT P6SM SKC
     FM230900 19003KT P6SM FEW250=



000
FTUS43 KMPX 221120
TAFAXN
TAF
KAXN 221120Z 2212/2312 VRB04KT P6SM SKC
     FM221400 15005KT P6SM SKC
     FM221900 17007KT P6SM SKC
     FM230600 19004KT P6SM SCT250=



000
FTUS43 KMPX 221120
TAFMSP
TAF
KMSP 221120Z 2212/2318 VRB03KT P6SM SKC
     FM221500 11004KT P6SM SKC
     FM221900 14007KT P6SM SKC
     FM230900 20003KT P6SM SCT250
     FM231500 20007KT P6SM BKN080 OVC120=



000
FTUS43 KMPX 221020 CCB
TAFEAU
TAF COR
KEAU 221020Z 2210/2306 VRB03KT 6SM BR SKC
     FM221200 07004KT P6SM SKC
     FM221800 25006KT P6SM SKC=



000
FTUS43 KMPX 221016 AAE
TAFEAU
TAF AMD
KEAU 221016Z 2210/2306 VRB03KT 6SM BR SKC
     FM221200 07004KT P6SM SKC
     FM221800 25006KT P6SM SKC=



000
FTUS43 KMPX 221016 AAE
TAFEAU
TAF AMD
KEAU 221016Z 2210/2306 VRB03KT 6SM BR SKC
     FM221200 07004KT P6SM SKC
     FM221800 25006KT P6SM SKC=



000
FTUS43 KMPX 221016 AAD
TAFEAU
TAF AMD
KEAU 221016Z 2210/2306 VRB03KT 6SM BR SKC
      TEMPO 2210/2211 1SM BR VV002
     FM221200 07004KT P6SM SKC
     FM221800 25006KT P6SM SKC=



000
FTUS43 KMPX 221016 AAD
TAFEAU
TAF AMD
KEAU 221016Z 2210/2306 VRB03KT 6SM BR SKC
      TEMPO 2210/2211 1SM BR VV002
     FM221200 07004KT P6SM SKC
     FM221800 25006KT P6SM SKC=



000
FTUS43 KMPX 221016 CCA
TAFEAU
TAF COR
KEAU 221016Z 2210/2306 VRB03KT 6SM BR SKC
     FM221200 07004KT P6SM SKC
     FM221800 25006KT P6SM SKC=



000
FTUS43 KMPX 220928 AAC
TAFEAU
TAF AMD
KEAU 220928Z 2209/2306 VRB03KT 4SM BR SKC
      TEMPO 2209/2212 1SM BR VV002
     FM221200 07004KT P6SM SKC
     FM221800 25006KT P6SM SKC=



000
FTUS43 KMPX 220928 AAC
TAFEAU
TAF AMD
KEAU 220928Z 2209/2306 VRB03KT 4SM BR SKC
      TEMPO 2209/2212 1SM BR VV002
     FM221200 07004KT P6SM SKC
     FM221800 25006KT P6SM SKC=



000
FTUS43 KMPX 220901 AAB
TAFEAU
TAF AMD
KEAU 220901Z 2209/2306 VRB03KT 4SM BR SKC
      TEMPO 2209/2212 1SM BR
     FM221200 07004KT P6SM SKC
     FM221800 25006KT P6SM SKC=



000
FTUS43 KMPX 220901 AAB
TAFEAU
TAF AMD
KEAU 220901Z 2209/2306 VRB03KT 4SM BR SKC
      TEMPO 2209/2212 1SM BR
     FM221200 07004KT P6SM SKC
     FM221800 25006KT P6SM SKC=



000
FTUS43 KMPX 220900 AAA
TAFMSP
TAF AMD
KMSP 220900Z 2209/2312 VRB03KT P6SM SKC
     FM221500 15004KT P6SM SKC
     FM221900 19007KT P6SM SKC=



000
FTUS43 KMPX 220838 AAA
TAFEAU
TAF AMD
KEAU 220838Z 2209/2306 VRB03KT 2SM BR SKC
      TEMPO 2209/2212 1/2SM FG
     FM221200 07004KT P6SM SKC
     FM221800 25006KT P6SM SKC=



000
FTUS43 KMPX 220520
TAFSTC
TAF
KSTC 220520Z 2206/2306 VRB02KT P6SM SKC
     FM221400 13004KT P6SM SKC
     FM221800 19007KT P6SM SKC=



000
FTUS43 KMPX 220520
TAFSTC
TAF
KSTC 220520Z 2206/2306 VRB02KT P6SM SKC
     FM221400 13004KT P6SM SKC
     FM221800 19007KT P6SM SKC=



000
FTUS43 KMPX 220520
TAFRWF
TAF
KRWF 220520Z 2206/2306 33003KT P6SM SKC
     FM221500 14004KT P6SM SKC
     FM221900 18007KT P6SM SKC=



000
FTUS43 KMPX 220520
TAFRWF
TAF
KRWF 220520Z 2206/2306 33003KT P6SM SKC
     FM221500 14004KT P6SM SKC
     FM221900 18007KT P6SM SKC=



000
FTUS43 KMPX 220520
TAFAXN
TAF
KAXN 220520Z 2206/2306 33004KT P6SM SKC
     FM221400 15005KT P6SM SKC
     FM221900 19007KT P6SM SKC=



000
FTUS43 KMPX 220520
TAFAXN
TAF
KAXN 220520Z 2206/2306 33004KT P6SM SKC
     FM221400 15005KT P6SM SKC
     FM221900 19007KT P6SM SKC=



000
FTUS43 KMPX 220520
TAFEAU
TAF
KEAU 220520Z 2206/2306 VRB03KT P6SM SKC
     FM221600 25006KT P6SM SKC=



000
FTUS43 KMPX 220520
TAFEAU
TAF
KEAU 220520Z 2206/2306 VRB03KT P6SM SKC
     FM221600 25006KT P6SM SKC=



000
FTUS43 KMPX 220520
TAFMSP
TAF
KMSP 220520Z 2206/2312 33005KT P6SM SKC
     FM220900 05003KT P6SM SKC
     FM221500 15004KT P6SM SKC
     FM221900 19007KT P6SM SKC=



000
FTUS43 KMPX 220520
TAFMSP
TAF
KMSP 220520Z 2206/2312 33005KT P6SM SKC
     FM220900 05003KT P6SM SKC
     FM221500 15004KT P6SM SKC
     FM221900 19007KT P6SM SKC=



000
FTUS43 KMPX 220248 AAA
TAFMSP
TAF AMD
KMSP 220248Z 2203/2306 33005KT P6SM SKC
     FM220900 VRB02KT P6SM SKC
     FM221500 15004KT P6SM SKC
     FM221900 19007KT P6SM SKC=



000
FTUS43 KMPX 212336
TAFEAU
TAF
KEAU 212336Z 2200/2224 33009KT P6SM SKC
     FM220200 VRB03KT P6SM SKC
     FM221600 25006KT P6SM SKC=



000
FTUS43 KMPX 212336
TAFMSP
TAF
KMSP 212336Z 2200/2306 32011KT P6SM SKC
     FM220200 34005KT P6SM SKC
     FM220900 VRB02KT P6SM SKC
     FM221500 15004KT P6SM SKC
     FM221900 19007KT P6SM SKC=



000
FTUS43 KMPX 212336
TAFRWF
TAF
KRWF 212336Z 2200/2224 32008KT P6SM SKC
     FM220100 33003KT P6SM SKC
     FM221500 14004KT P6SM SKC
     FM221900 18007KT P6SM SKC=



000
FTUS43 KMPX 212336
TAFAXN
TAF
KAXN 212336Z 2200/2224 34011KT P6SM SKC
     FM220100 36004KT P6SM SKC
     FM221400 17005KT P6SM SKC
     FM222000 19007KT P6SM SKC=



000
FTUS43 KMPX 212336
TAFSTC
TAF
KSTC 212336Z 2200/2224 34008KT P6SM SKC
     FM220100 36003KT P6SM SKC
     FM221400 13004KT P6SM SKC
     FM221800 19007KT P6SM SKC=



000
FTUS43 KMPX 212336
TAFMSP
TAF
KMSP 212336Z 2200/2306 32011KT P6SM SKC
     FM220200 34005KT P6SM SKC
     FM220900 VRB02KT P6SM SKC
     FM221500 15004KT P6SM SKC
     FM221900 19007KT P6SM SKC=



000
FTUS43 KMPX 212336
TAFEAU
TAF
KEAU 212336Z 2200/2224 33009KT P6SM SKC
     FM220200 VRB03KT P6SM SKC
     FM221600 25006KT P6SM SKC=



000
FTUS43 KMPX 212336
TAFRWF
TAF
KRWF 212336Z 2200/2224 32008KT P6SM SKC
     FM220100 33003KT P6SM SKC
     FM221500 14004KT P6SM SKC
     FM221900 18007KT P6SM SKC=



000
FTUS43 KMPX 212336
TAFAXN
TAF
KAXN 212336Z 2200/2224 34011KT P6SM SKC
     FM220100 36004KT P6SM SKC
     FM221400 17005KT P6SM SKC
     FM222000 19007KT P6SM SKC=



000
FTUS43 KMPX 212336
TAFSTC
TAF
KSTC 212336Z 2200/2224 34008KT P6SM SKC
     FM220100 36003KT P6SM SKC
     FM221400 13004KT P6SM SKC
     FM221800 19007KT P6SM SKC=



    US Dept of Commerce
    National Oceanic and Atmospheric Administration
    National Weather Service
    1325 East West Highway
    Silver Spring, MD 20910
    Page Author: NWS Internet Services Team
Disclaimer
Information Quality
Credits
Glossary
Privacy Policy
Freedom of Information Act (FOIA)
About Us
Career Opportunities